createdAt,value
2022-11-19T00:02:32.147Z,10.50
2022-11-19T00:05:11.862Z,10.50
2022-11-19T00:07:54.140Z,10.50
2022-11-19T00:11:09.691Z,10.60
2022-11-19T00:13:58.216Z,10.40
2022-11-19T00:16:40.829Z,10.40
2022-11-19T00:20:08.217Z,10.50
2022-11-19T00:22:48.515Z,10.60
2022-11-19T00:25:42.774Z,10.50
2022-11-19T00:28:40.461Z,10.50
2022-11-19T00:31:18.312Z,10.50
2022-11-19T00:34:31.175Z,10.40
2022-11-19T00:37:09.936Z,10.40
2022-11-19T00:44:01.308Z,10.20
2022-11-19T00:46:41.547Z,10.20
2022-11-19T00:49:28.996Z,10.30
2022-11-19T00:52:40.825Z,10.30
2022-11-19T00:55:43.965Z,10.40
2022-11-19T00:58:47.804Z,10.20
2022-11-19T01:09:19.039Z,10.00
2022-11-19T01:12:12.112Z,10.10
2022-11-19T01:14:53.266Z,10.40
2022-11-19T01:20:54.284Z,10.30
2022-11-19T01:23:46.626Z,10.10
2022-11-19T01:26:45.747Z,10.10
2022-11-19T01:29:53.613Z,10.30
2022-11-19T01:33:04.855Z,10.20
2022-11-19T01:35:58.290Z,10.20
2022-11-19T01:42:42.898Z,10.40
2022-11-19T01:45:33.757Z,10.50
2022-11-19T01:48:42.220Z,10.40
2022-11-19T01:51:33.906Z,10.50
2022-11-19T01:54:30.468Z,10.40
2022-11-19T02:00:18.002Z,10.50
2022-11-19T02:02:55.691Z,10.40
2022-11-19T02:06:12.593Z,10.50
2022-11-19T02:09:00.287Z,10.40
2022-11-19T02:11:42.790Z,10.30
2022-11-19T02:14:27.192Z,10.40
2022-11-19T02:17:21.836Z,10.30
2022-11-19T02:20:49.432Z,10.40
2022-11-19T02:24:36.393Z,10.40
2022-11-19T02:27:24.746Z,10.30
2022-11-19T02:30:27.427Z,10.20
2022-11-19T02:33:16.819Z,10.10
2022-11-19T02:36:09.083Z,10.30
2022-11-19T02:38:54.928Z,10.20
2022-11-19T02:41:39.957Z,10.30
2022-11-19T02:44:40.857Z,10.40
2022-11-19T02:47:21.489Z,10.50
2022-11-19T02:49:58.488Z,10.60
2022-11-19T02:52:28.724Z,10.60
2022-11-19T02:55:02.753Z,10.60
2022-11-19T02:57:33.757Z,10.60
2022-11-19T03:00:20.768Z,10.70
2022-11-19T03:03:08.602Z,10.50
2022-11-19T03:05:45.253Z,10.40
2022-11-19T03:08:19.776Z,10.20
2022-11-19T03:11:07.201Z,10.30
2022-11-19T03:14:00.640Z,10.00
2022-11-19T03:16:48.758Z,10.10
2022-11-19T03:19:34.228Z,10.10
2022-11-19T03:22:13.077Z,10.10
2022-11-19T03:25:02.878Z,10.10
2022-11-19T03:27:41.843Z,10.20
2022-11-19T03:30:11.551Z,10.30
2022-11-19T03:32:56.088Z,10.10
2022-11-19T03:35:38.004Z,10.20
2022-11-19T03:38:31.121Z,10.30
2022-11-19T03:41:20.471Z,10.30
2022-11-19T03:44:04.182Z,10.40
2022-11-19T03:46:41.418Z,10.20
2022-11-19T03:49:21.445Z,10.10
2022-11-19T03:52:00.914Z,10.00
2022-11-19T03:54:39.045Z,10.10
2022-11-19T03:57:16.968Z,10.30
2022-11-19T04:00:23.009Z,10.20
2022-11-19T04:03:01.218Z,10.40
2022-11-19T04:05:46.310Z,10.50
2022-11-19T04:08:34.119Z,10.70
2022-11-19T04:13:41.169Z,10.30
2022-11-19T04:19:15.328Z,10.40
2022-11-19T04:21:50.096Z,10.20
2022-11-19T04:27:19.346Z,10.30
2022-11-19T04:29:49.887Z,10.40
2022-11-19T04:32:34.837Z,10.30
2022-11-19T04:35:11.781Z,10.30
2022-11-19T04:37:59.385Z,10.20
2022-11-19T04:40:36.788Z,10.30
2022-11-19T04:43:10.998Z,10.10
2022-11-19T04:45:46.915Z,10.20
2022-11-19T04:48:30.823Z,10.30
2022-11-19T04:51:05.190Z,10.50
2022-11-19T04:53:43.758Z,10.30
2022-11-19T04:56:24.476Z,10.10
2022-11-19T04:59:03.104Z,10.00
2022-11-19T05:01:38.046Z,10.20
2022-11-19T05:04:22.369Z,10.00
2022-11-19T05:07:01.053Z,10.10
2022-11-19T05:09:43.342Z,10.10
2022-11-19T05:12:14.030Z,10.30
2022-11-19T05:14:53.445Z,10.40
2022-11-19T05:17:26.657Z,10.50
2022-11-19T05:20:04.386Z,10.50
2022-11-19T05:22:43.633Z,10.40
2022-11-19T05:25:14.435Z,10.50
2022-11-19T05:27:47.361Z,10.60
2022-11-19T05:30:20.503Z,10.70
2022-11-19T05:35:54.829Z,10.60
2022-11-19T05:38:29.044Z,10.80
2022-11-19T05:41:22.486Z,10.80
2022-11-19T05:44:02.910Z,10.80
2022-11-19T05:46:43.559Z,10.70
2022-11-19T05:49:16.370Z,10.70
2022-11-19T05:51:58.717Z,10.60
2022-11-19T05:55:00.340Z,10.60
2022-11-19T05:57:44.621Z,10.50
2022-11-19T06:00:18.919Z,10.60
2022-11-19T06:02:52.851Z,10.50
2022-11-19T06:05:39.841Z,10.70
2022-11-19T06:08:17.187Z,10.60
2022-11-19T06:10:51.854Z,10.50
2022-11-19T06:13:39.563Z,10.40
2022-11-19T06:16:13.852Z,10.40
2022-11-19T06:18:53.402Z,10.20
2022-11-19T06:21:27.321Z,10.40
2022-11-19T06:24:14.206Z,10.30
2022-11-19T06:27:06.337Z,10.30
2022-11-19T06:29:55.949Z,10.10
2022-11-19T06:32:36.074Z,10.00
2022-11-19T06:35:22.832Z,9.90
2022-11-19T06:37:54.556Z,10.00
2022-11-19T06:40:40.720Z,10.00
2022-11-19T06:43:24.606Z,10.30
2022-11-19T06:46:01.078Z,10.20
2022-11-19T06:48:30.325Z,10.20
2022-11-19T06:51:02.670Z,10.00
2022-11-19T06:53:33.539Z,9.90
2022-11-19T06:56:26.529Z,10.00
2022-11-19T06:59:20.681Z,10.10
2022-11-19T07:02:10.133Z,10.30
2022-11-19T07:04:45.654Z,10.30
2022-11-19T07:07:28.260Z,10.40
2022-11-19T07:10:07.904Z,10.20
2022-11-19T07:12:52.834Z,10.30
2022-11-19T07:15:27.390Z,10.40
2022-11-19T07:18:34.937Z,10.40
2022-11-19T07:21:27.804Z,10.30
2022-11-19T07:24:14.381Z,10.40
2022-11-19T07:29:49.743Z,10.40
2022-11-19T07:32:38.133Z,10.40
2022-11-19T07:35:14.223Z,10.40
2022-11-19T07:38:22.486Z,10.40
2022-11-19T07:41:25.925Z,10.50
2022-11-19T07:44:11.037Z,10.30
2022-11-19T07:46:53.830Z,10.50
2022-11-19T07:49:32.296Z,10.30
2022-11-19T07:55:23.501Z,10.40
2022-11-19T07:58:11.828Z,10.10
2022-11-19T08:00:55.709Z,10.00
2022-11-19T08:03:35.423Z,10.00
2022-11-19T08:06:36.707Z,10.20
2022-11-19T08:09:06.708Z,10.30
2022-11-19T08:11:52.038Z,10.40
2022-11-19T08:14:42.397Z,10.40
2022-11-19T08:17:52.633Z,10.40
2022-11-19T08:20:37.466Z,10.40
2022-11-19T08:23:36.730Z,10.20
2022-11-19T08:29:20.058Z,10.10
2022-11-19T08:31:49.791Z,10.10
2022-11-19T08:34:19.689Z,10.20
2022-11-19T08:36:49.821Z,10.20
2022-11-19T08:39:19.653Z,10.10
2022-11-19T08:56:15.341Z,10.30
2022-11-19T08:58:50.623Z,10.20
2022-11-19T09:01:19.544Z,10.20
2022-11-19T09:03:49.158Z,10.20
2022-11-19T09:06:49.121Z,10.20
2022-11-19T09:10:27.939Z,10.20
2022-11-19T09:12:57.672Z,10.10
2022-11-19T09:15:25.765Z,10.10
2022-11-19T09:17:53.830Z,10.20
2022-11-19T09:20:22.013Z,10.30
2022-11-19T09:22:51.674Z,10.30
2022-11-19T09:25:20.473Z,10.40
2022-11-19T09:27:48.585Z,10.30
2022-11-19T09:30:18.319Z,10.20
2022-11-19T09:32:46.535Z,10.30
2022-11-19T09:35:15.090Z,10.30
2022-11-19T09:37:43.155Z,10.20
2022-11-19T09:40:12.737Z,10.30
2022-11-19T09:42:43.860Z,10.30
2022-11-19T09:45:17.824Z,10.50
2022-11-19T09:47:55.652Z,10.50
2022-11-19T09:50:26.151Z,10.60
2022-11-19T09:52:57.250Z,10.50
2022-11-19T09:55:30.689Z,10.50
2022-11-19T09:58:01.141Z,10.50
2022-11-19T10:00:31.973Z,10.60
2022-11-19T10:03:12.393Z,10.60
2022-11-19T10:05:50.418Z,10.60
2022-11-19T10:08:41.633Z,10.60
2022-11-19T10:11:29.237Z,10.40
2022-11-19T10:14:08.971Z,10.30
2022-11-19T10:17:14.918Z,10.30
2022-11-19T10:20:34.049Z,10.30
2022-11-19T10:23:11.101Z,10.40
2022-11-19T10:25:42.839Z,10.40
2022-11-19T10:28:13.889Z,10.50
2022-11-19T10:30:44.828Z,10.60
2022-11-19T10:33:19.875Z,10.50
2022-11-19T10:35:53.254Z,10.50
2022-11-19T10:38:25.391Z,10.60
2022-11-19T10:40:58.701Z,10.60
2022-11-19T10:43:31.442Z,10.60
2022-11-19T10:46:02.572Z,10.50
2022-11-19T10:48:36.881Z,10.70
2022-11-19T10:51:11.742Z,10.70
2022-11-19T10:53:49.421Z,10.70
2022-11-19T10:56:24.829Z,10.50
2022-11-19T11:08:53.307Z,10.10
2022-11-19T11:18:18.903Z,10.20
2022-11-19T11:25:37.509Z,10.40
2022-11-19T11:28:14.351Z,10.30
2022-11-19T11:30:59.941Z,10.30
2022-11-19T11:33:34.471Z,10.40
2022-11-19T11:36:07.957Z,10.40
2022-11-19T11:38:43.780Z,10.50
2022-11-19T11:46:02.860Z,10.60
2022-11-19T11:48:36.513Z,10.60
2022-11-19T11:56:10.579Z,10.60
2022-11-19T11:58:39.739Z,10.80
2022-11-19T12:14:53.872Z,10.70
2022-11-19T12:17:32.055Z,10.90
2022-11-19T12:20:20.853Z,10.80
2022-11-19T12:22:56.472Z,10.80
2022-11-19T12:25:28.113Z,10.70
2022-11-19T12:28:07.698Z,10.70
2022-11-19T12:30:41.382Z,10.60
2022-11-19T12:33:16.711Z,10.40
2022-11-19T12:35:53.028Z,10.20
2022-11-19T12:38:26.270Z,10.20
2022-11-19T12:40:58.396Z,10.10
2022-11-19T12:43:36.934Z,10.10
2022-11-19T12:46:11.497Z,10.00
2022-11-19T12:49:00.613Z,9.90
2022-11-19T12:51:34.299Z,9.80
2022-11-19T12:54:24.354Z,9.80
2022-11-19T12:57:01.418Z,9.80
2022-11-19T12:59:54.037Z,9.80
2022-11-19T13:06:43.869Z,9.70
2022-11-19T13:13:25.061Z,9.50
2022-11-19T13:16:08.124Z,9.40
2022-11-19T13:18:51.917Z,9.60
2022-11-19T13:22:14.356Z,9.50
2022-11-19T13:24:58.510Z,9.60
2022-11-19T13:27:58.632Z,9.70
2022-11-19T13:31:05.104Z,9.80
2022-11-19T14:21:14.751Z,9.40
2022-11-19T14:24:01.843Z,9.40
2022-11-19T14:26:52.418Z,9.50
2022-11-19T14:29:39.576Z,9.60
2022-11-19T14:32:20.332Z,9.60
2022-11-19T14:35:08.920Z,9.60
2022-11-19T14:37:41.402Z,9.60
2022-11-19T14:40:11.123Z,9.60
2022-11-19T14:43:13.456Z,9.50
2022-11-19T14:45:41.836Z,9.50
2022-11-19T14:48:11.369Z,9.50
2022-11-19T14:50:39.797Z,9.40
2022-11-19T14:53:18.960Z,9.30
2022-11-19T14:55:54.376Z,9.30
2022-11-19T14:58:24.244Z,9.40
2022-11-19T15:01:07.143Z,9.30
2022-11-19T15:03:37.721Z,9.30
2022-11-19T15:06:07.602Z,9.40
2022-11-19T15:08:49.583Z,9.40
2022-11-19T15:11:18.605Z,9.40
2022-11-19T15:13:47.585Z,9.40
2022-11-19T15:16:16.741Z,9.30
2022-11-19T15:19:03.669Z,9.30
2022-11-19T15:21:44.555Z,9.20
2022-11-19T15:24:21.471Z,9.20
2022-11-19T15:26:56.007Z,9.20
2022-11-19T15:29:31.875Z,9.20
2022-11-19T15:32:06.816Z,9.20
2022-11-19T15:35:04.394Z,9.10
2022-11-19T15:37:42.990Z,9.00
2022-11-19T15:40:17.977Z,9.00
2022-11-19T15:42:51.079Z,9.00
2022-11-19T15:45:21.309Z,9.00
2022-11-19T15:47:52.523Z,9.10
2022-11-19T15:50:22.371Z,9.10
2022-11-19T15:53:00.682Z,9.10
2022-11-19T15:55:31.979Z,9.10
2022-11-19T15:58:02.386Z,9.10
2022-11-19T16:00:31.106Z,9.00
2022-11-19T16:02:59.562Z,8.90
2022-11-19T16:05:32.879Z,8.80
2022-11-19T16:08:06.836Z,8.90
2022-11-19T16:10:38.151Z,8.90
2022-11-19T16:13:38.842Z,8.90
2022-11-19T16:16:32.818Z,8.80
2022-11-19T16:19:01.474Z,8.90
2022-11-19T16:25:27.993Z,8.80
2022-11-19T16:28:41.635Z,8.70
2022-11-19T16:31:10.454Z,8.60
2022-11-19T16:33:40.763Z,8.60
2022-11-19T16:36:12.912Z,8.60
2022-11-19T16:38:42.089Z,8.70
2022-11-19T16:41:29.027Z,8.60
2022-11-19T16:43:58.975Z,8.60
2022-11-19T16:46:30.073Z,8.60
2022-11-19T16:48:59.218Z,8.70
2022-11-19T16:51:32.539Z,8.70
2022-11-19T16:54:01.668Z,8.70
2022-11-19T16:56:33.770Z,8.70
2022-11-19T16:59:05.035Z,8.60
2022-11-19T17:01:33.795Z,8.70
2022-11-19T17:04:04.050Z,8.70
2022-11-19T17:06:34.896Z,8.70
2022-11-19T17:09:03.442Z,8.60
2022-11-19T17:12:07.054Z,8.60
2022-11-19T17:14:51.279Z,8.60
2022-11-19T17:17:27.918Z,8.70
2022-11-19T17:19:57.720Z,8.60
2022-11-19T17:22:28.436Z,8.50
2022-11-19T17:24:56.893Z,8.40
2022-11-19T17:27:27.082Z,8.40
2022-11-19T17:29:59.492Z,8.40
2022-11-19T17:32:28.177Z,8.30
2022-11-19T17:34:56.555Z,8.50
2022-11-19T17:37:25.180Z,8.50
2022-11-19T17:39:53.465Z,8.50
2022-11-19T17:42:38.093Z,8.30
2022-11-19T17:45:10.977Z,8.30
2022-11-19T17:47:39.547Z,8.10
2022-11-19T17:50:08.522Z,7.90
2022-11-19T17:52:36.949Z,7.90
2022-11-19T17:55:11.917Z,7.80
2022-11-19T17:57:42.714Z,7.80
2022-11-19T18:00:13.836Z,7.70
2022-11-19T18:02:42.472Z,7.60
2022-11-19T18:05:15.708Z,7.50
2022-11-19T18:07:44.232Z,7.50
2022-11-19T18:10:13.083Z,7.50
2022-11-19T18:12:41.618Z,7.60
2022-11-19T18:15:14.770Z,7.60
2022-11-19T18:17:45.121Z,7.70
2022-11-19T18:20:14.114Z,7.70
2022-11-19T18:22:42.351Z,7.70
2022-11-19T18:25:14.969Z,7.60
2022-11-19T18:27:43.424Z,7.60
2022-11-19T18:30:14.176Z,7.60
2022-11-19T18:32:42.961Z,7.60
2022-11-19T18:35:14.955Z,7.70
2022-11-19T18:37:43.556Z,7.80
2022-11-19T18:40:12.673Z,7.90
2022-11-19T18:43:01.833Z,8.00
2022-11-19T18:45:30.894Z,8.10
2022-11-19T18:47:59.608Z,8.20
2022-11-19T18:50:30.255Z,8.20
2022-11-19T18:52:59.096Z,8.20
2022-11-19T18:55:27.781Z,8.20
2022-11-19T18:57:56.149Z,8.30
2022-11-19T19:00:25.086Z,8.20
2022-11-19T19:02:55.064Z,8.20
2022-11-19T19:05:23.656Z,8.30
2022-11-19T19:07:55.196Z,8.30
2022-11-19T19:10:26.712Z,8.30
2022-11-19T19:31:33.598Z,8.40
2022-11-19T19:34:48.348Z,8.50
2022-11-19T19:37:16.737Z,8.50
2022-11-19T19:39:45.096Z,8.40
2022-11-19T19:42:13.620Z,8.40
2022-11-19T19:44:42.096Z,8.40
2022-11-19T19:47:12.188Z,8.40
2022-11-19T19:49:44.086Z,8.40
2022-11-19T19:52:12.612Z,8.30
2022-11-19T20:15:18.568Z,8.30
2022-11-19T20:17:47.133Z,8.40
2022-11-19T20:20:15.645Z,8.40
2022-11-19T20:22:44.171Z,8.30
2022-11-19T20:25:12.894Z,8.30
2022-11-19T20:27:41.450Z,8.20
2022-11-19T20:30:10.439Z,8.20
2022-11-19T20:32:40.232Z,8.20
2022-11-19T20:35:08.922Z,8.20
2022-11-19T20:37:37.398Z,8.20
2022-11-19T20:40:06.348Z,8.20
2022-11-19T20:42:54.662Z,8.30
2022-11-19T20:45:23.191Z,8.10
2022-11-19T20:47:53.347Z,8.00
2022-11-19T20:50:21.861Z,8.10
2022-11-19T20:52:50.346Z,8.00
2022-11-19T20:55:18.929Z,8.00
2022-11-19T20:57:47.513Z,8.10
2022-11-19T21:00:16.921Z,8.10
2022-11-19T21:02:45.371Z,8.10
2022-11-19T21:05:15.231Z,8.10
2022-11-19T21:07:43.752Z,8.20
2022-11-19T21:10:12.303Z,8.20
2022-11-19T21:13:00.834Z,8.30
2022-11-19T21:15:29.320Z,8.30
2022-11-19T21:17:57.938Z,8.30
2022-11-19T21:20:27.834Z,8.30
2022-11-19T21:22:56.299Z,8.20
2022-11-19T21:25:24.617Z,8.20
2022-11-19T21:27:54.900Z,8.20
2022-11-19T21:30:23.665Z,8.20
2022-11-19T21:32:52.216Z,8.20
2022-11-19T21:35:20.610Z,8.20
2022-11-19T21:37:50.431Z,8.30
2022-11-19T21:40:18.896Z,8.30
2022-11-19T21:42:47.457Z,8.30
2022-11-19T21:45:15.879Z,8.30
2022-11-19T21:47:44.426Z,8.30
2022-11-19T21:50:12.910Z,8.20
2022-11-19T21:52:41.543Z,8.20
2022-11-19T21:55:11.806Z,8.20
2022-11-19T21:57:40.192Z,8.00
2022-11-19T22:00:09.135Z,8.00
2022-11-19T22:02:41.408Z,7.80
2022-11-19T22:05:10.247Z,7.70
2022-11-19T22:07:38.900Z,7.60
2022-11-19T22:10:08.228Z,7.60
2022-11-19T22:12:38.194Z,7.60
2022-11-19T22:15:07.428Z,7.60
2022-11-19T22:17:36.403Z,7.70
2022-11-19T22:20:05.337Z,7.80
2022-11-19T22:22:33.937Z,7.90
2022-11-19T22:25:02.316Z,7.90
2022-11-19T22:27:30.872Z,7.90
2022-11-19T22:30:04.556Z,7.90
2022-11-19T22:32:34.771Z,7.90
2022-11-19T22:35:03.078Z,7.60
2022-11-19T22:37:32.086Z,7.50
2022-11-19T22:40:00.482Z,7.60
2022-11-19T22:42:29.043Z,7.70
2022-11-19T22:44:57.506Z,7.90
2022-11-19T22:47:27.490Z,8.00
2022-11-19T22:49:55.958Z,8.00
2022-11-19T22:52:24.400Z,8.00
2022-11-19T22:54:52.973Z,8.00
2022-11-19T22:57:21.419Z,8.00
2022-11-19T22:59:49.861Z,8.00
2022-11-19T23:02:18.289Z,8.10
2022-11-19T23:04:48.105Z,8.10
2022-11-19T23:07:16.903Z,8.10
2022-11-19T23:09:45.537Z,7.90
2022-11-19T23:12:31.311Z,7.80
2022-11-19T23:15:00.156Z,7.90
2022-11-19T23:17:28.961Z,7.90
2022-11-19T23:20:04.258Z,7.80
2022-11-19T23:22:32.991Z,7.70
2022-11-19T23:25:01.420Z,7.80
2022-11-19T23:27:29.910Z,7.80
2022-11-19T23:29:58.335Z,7.90
2022-11-19T23:32:26.894Z,7.90
2022-11-19T23:34:55.366Z,7.90
2022-11-19T23:37:25.096Z,8.00
2022-11-19T23:39:53.483Z,8.00
2022-11-19T23:42:21.801Z,8.00
2022-11-19T23:44:50.250Z,7.90
2022-11-19T23:47:18.802Z,8.00
2022-11-19T23:49:47.359Z,8.00
2022-11-19T23:52:15.896Z,7.90
2022-11-19T23:54:45.994Z,7.90
2022-11-19T23:57:14.698Z,8.00
2022-11-19T23:59:44.051Z,8.00
